sensor_id;sensor_type;location;lat;lon;timestamp;pressure;altitude;pressure_sealevel;temperature;humidity
14232;BME280;7200;52.194;9.900;2024-01-16T00:02:07;99113.88;;;2.67;100.00
14232;BME280;7200;52.194;9.900;2024-01-16T00:04:36;99119.72;;;2.77;100.00
14232;BME280;7200;52.194;9.900;2024-01-16T00:07:01;99120.31;;;2.88;100.00
14232;BME280;7200;52.194;9.900;2024-01-16T00:09:27;99125.88;;;2.73;100.00
14232;BME280;7200;52.194;9.900;2024-01-16T00:11:52;99122.84;;;2.90;100.00
14232;BME280;7200;52.194;9.900;2024-01-16T00:14:17;99126.09;;;3.00;100.00
14232;BME280;7200;52.194;9.900;2024-01-16T00:16:46;99142.88;;;2.88;100.00
14232;BME280;7200;52.194;9.900;2024-01-16T00:19:12;99128.03;;;2.90;100.00
14232;BME280;7200;52.194;9.900;2024-01-16T00:21:39;99139.63;;;2.80;100.00
14232;BME280;7200;52.194;9.900;2024-01-16T00:24:04;99139.78;;;2.73;100.00
14232;BME280;7200;52.194;9.900;2024-01-16T00:26:30;99148.03;;;2.55;100.00
14232;BME280;7200;52.194;9.900;2024-01-16T00:28:55;99156.22;;;2.76;100.00
14232;BME280;7200;52.194;9.900;2024-01-16T00:31:20;99160.41;;;2.81;100.00
14232;BME280;7200;52.194;9.900;2024-01-16T00:33:46;99161.66;;;2.66;100.00
14232;BME280;7200;52.194;9.900;2024-01-16T00:36:11;99163.22;;;2.73;100.00
14232;BME280;7200;52.194;9.900;2024-01-16T00:38:36;99166.53;;;2.79;100.00
14232;BME280;7200;52.194;9.900;2024-01-16T00:41:01;99169.03;;;2.83;100.00
14232;BME280;7200;52.194;9.900;2024-01-16T00:43:27;99175.66;;;2.97;100.00
14232;BME280;7200;52.194;9.900;2024-01-16T00:45:52;99166.41;;;2.85;100.00
14232;BME280;7200;52.194;9.900;2024-01-16T00:48:17;99169.28;;;2.74;100.00
14232;BME280;7200;52.194;9.900;2024-01-16T00:50:44;99177.34;;;2.63;100.00
14232;BME280;7200;52.194;9.900;2024-01-16T00:53:11;99179.72;;;2.72;100.00
14232;BME280;7200;52.194;9.900;2024-01-16T00:55:36;99196.91;;;2.80;100.00
14232;BME280;7200;52.194;9.900;2024-01-16T00:58:02;99202.38;;;2.69;100.00
14232;BME280;7200;52.194;9.900;2024-01-16T01:00:27;99196.03;;;2.81;100.00
14232;BME280;7200;52.194;9.900;2024-01-16T01:02:55;99192.06;;;2.66;100.00
14232;BME280;7200;52.194;9.900;2024-01-16T01:05:20;99202.25;;;2.75;100.00
14232;BME280;7200;52.194;9.900;2024-01-16T01:07:45;99201.16;;;2.84;100.00
14232;BME280;7200;52.194;9.900;2024-01-16T01:10:11;99207.63;;;2.67;100.00
14232;BME280;7200;52.194;9.900;2024-01-16T01:12:36;99198.56;;;2.82;100.00
14232;BME280;7200;52.194;9.900;2024-01-16T01:15:01;99204.94;;;2.70;100.00
14232;BME280;7200;52.194;9.900;2024-01-16T01:17:27;99216.22;;;2.71;100.00
14232;BME280;7200;52.194;9.900;2024-01-16T01:19:52;99202.53;;;2.63;100.00
14232;BME280;7200;52.194;9.900;2024-01-16T01:22:17;99209.81;;;2.48;100.00
14232;BME280;7200;52.194;9.900;2024-01-16T01:24:42;99208.69;;;2.60;100.00
14232;BME280;7200;52.194;9.900;2024-01-16T01:27:08;99215.53;;;2.64;100.00
14232;BME280;7200;52.194;9.900;2024-01-16T01:29:33;99219.75;;;2.68;100.00
14232;BME280;7200;52.194;9.900;2024-01-16T01:31:58;99218.97;;;2.65;100.00
14232;BME280;7200;52.194;9.900;2024-01-16T01:34:24;99225.72;;;2.73;100.00
14232;BME280;7200;52.194;9.900;2024-01-16T01:36:49;99228.94;;;2.83;100.00
14232;BME280;7200;52.194;9.900;2024-01-16T01:39:14;99229.84;;;2.82;100.00
14232;BME280;7200;52.194;9.900;2024-01-16T01:41:40;99224.97;;;2.68;100.00
14232;BME280;7200;52.194;9.900;2024-01-16T01:44:05;99225.03;;;2.65;100.00
14232;BME280;7200;52.194;9.900;2024-01-16T01:46:32;99237.19;;;2.65;100.00
14232;BME280;7200;52.194;9.900;2024-01-16T01:48:58;99234.53;;;2.68;100.00
14232;BME280;7200;52.194;9.900;2024-01-16T01:51:24;99244.22;;;2.61;100.00
14232;BME280;7200;52.194;9.900;2024-01-16T01:53:50;99242.34;;;2.68;100.00
14232;BME280;7200;52.194;9.900;2024-01-16T01:56:20;99247.63;;;2.65;100.00
14232;BME280;7200;52.194;9.900;2024-01-16T01:58:47;99243.47;;;2.56;100.00
14232;BME280;7200;52.194;9.900;2024-01-16T02:01:14;99260.28;;;2.80;100.00
14232;BME280;7200;52.194;9.900;2024-01-16T02:03:42;99264.91;;;2.67;100.00
14232;BME280;7200;52.194;9.900;2024-01-16T02:06:09;99264.03;;;2.68;100.00
14232;BME280;7200;52.194;9.900;2024-01-16T02:08:35;99259.69;;;2.67;100.00
14232;BME280;7200;52.194;9.900;2024-01-16T02:11:00;99265.75;;;2.69;100.00
14232;BME280;7200;52.194;9.900;2024-01-16T02:13:25;99268.66;;;2.56;100.00
14232;BME280;7200;52.194;9.900;2024-01-16T02:15:51;99272.88;;;2.61;100.00
14232;BME280;7200;52.194;9.900;2024-01-16T02:18:17;99271.69;;;2.75;100.00
14232;BME280;7200;52.194;9.900;2024-01-16T02:20:43;99277.81;;;2.73;100.00
14232;BME280;7200;52.194;9.900;2024-01-16T02:23:10;99282.25;;;2.68;100.00
14232;BME280;7200;52.194;9.900;2024-01-16T02:25:37;99281.44;;;2.66;100.00
14232;BME280;7200;52.194;9.900;2024-01-16T02:28:03;99274.66;;;2.59;100.00
14232;BME280;7200;52.194;9.900;2024-01-16T02:30:28;99270.44;;;2.53;100.00
14232;BME280;7200;52.194;9.900;2024-01-16T02:32:54;99261.06;;;2.45;100.00
14232;BME280;7200;52.194;9.900;2024-01-16T02:35:19;99275.00;;;2.44;100.00
14232;BME280;7200;52.194;9.900;2024-01-16T02:37:44;99278.91;;;2.23;100.00
14232;BME280;7200;52.194;9.900;2024-01-16T02:40:10;99283.47;;;2.52;100.00
14232;BME280;7200;52.194;9.900;2024-01-16T02:42:36;99287.91;;;2.48;100.00
14232;BME280;7200;52.194;9.900;2024-01-16T02:45:03;99289.44;;;2.57;100.00
14232;BME280;7200;52.194;9.900;2024-01-16T02:47:29;99297.53;;;2.45;100.00
14232;BME280;7200;52.194;9.900;2024-01-16T02:49:54;99286.78;;;2.20;100.00
14232;BME280;7200;52.194;9.900;2024-01-16T02:52:20;99300.69;;;2.19;100.00
14232;BME280;7200;52.194;9.900;2024-01-16T02:54:45;99300.34;;;2.36;100.00
14232;BME280;7200;52.194;9.900;2024-01-16T02:57:11;99304.69;;;2.33;100.00
14232;BME280;7200;52.194;9.900;2024-01-16T02:59:36;99304.44;;;2.47;100.00
14232;BME280;7200;52.194;9.900;2024-01-16T03:02:01;99310.13;;;2.63;100.00
14232;BME280;7200;52.194;9.900;2024-01-16T03:04:27;99320.19;;;2.41;100.00
14232;BME280;7200;52.194;9.900;2024-01-16T03:06:52;99316.03;;;2.31;100.00
14232;BME280;7200;52.194;9.900;2024-01-16T03:09:18;99318.59;;;2.34;100.00
14232;BME280;7200;52.194;9.900;2024-01-16T03:11:43;99316.66;;;2.44;100.00
14232;BME280;7200;52.194;9.900;2024-01-16T03:14:08;99309.13;;;2.30;100.00
14232;BME280;7200;52.194;9.900;2024-01-16T03:16:33;99308.50;;;2.19;100.00
14232;BME280;7200;52.194;9.900;2024-01-16T03:18:59;99315.53;;;2.13;100.00
14232;BME280;7200;52.194;9.900;2024-01-16T03:21:24;99319.56;;;2.28;100.00
14232;BME280;7200;52.194;9.900;2024-01-16T03:23:50;99332.41;;;2.38;100.00
14232;BME280;7200;52.194;9.900;2024-01-16T03:26:16;99329.69;;;1.99;100.00
14232;BME280;7200;52.194;9.900;2024-01-16T03:28:42;99333.50;;;2.26;100.00
14232;BME280;7200;52.194;9.900;2024-01-16T03:31:07;99326.09;;;2.06;100.00
14232;BME280;7200;52.194;9.900;2024-01-16T03:33:33;99326.19;;;2.00;100.00
14232;BME280;7200;52.194;9.900;2024-01-16T03:36:00;99328.34;;;2.24;100.00
14232;BME280;7200;52.194;9.900;2024-01-16T03:38:25;99338.22;;;2.05;100.00
14232;BME280;7200;52.194;9.900;2024-01-16T03:40:50;99340.72;;;2.13;100.00
14232;BME280;7200;52.194;9.900;2024-01-16T03:43:17;99338.50;;;1.91;100.00
14232;BME280;7200;52.194;9.900;2024-01-16T03:45:42;99348.38;;;2.21;100.00
14232;BME280;7200;52.194;9.900;2024-01-16T03:48:07;99346.97;;;2.01;100.00
14232;BME280;7200;52.194;9.900;2024-01-16T03:50:32;99353.56;;;2.21;100.00
14232;BME280;7200;52.194;9.900;2024-01-16T03:52:59;99353.09;;;1.99;100.00
14232;BME280;7200;52.194;9.900;2024-01-16T03:55:24;99357.41;;;2.00;100.00
14232;BME280;7200;52.194;9.900;2024-01-16T03:57:49;99356.81;;;1.87;100.00
14232;BME280;7200;52.194;9.900;2024-01-16T04:00:16;99363.06;;;1.75;100.00
14232;BME280;7200;52.194;9.900;2024-01-16T04:02:41;99377.19;;;2.08;100.00
14232;BME280;7200;52.194;9.900;2024-01-16T04:05:07;99375.84;;;1.89;100.00
14232;BME280;7200;52.194;9.900;2024-01-16T04:07:33;99373.97;;;1.95;100.00
14232;BME280;7200;52.194;9.900;2024-01-16T04:09:58;99376.81;;;1.82;100.00
14232;BME280;7200;52.194;9.900;2024-01-16T04:12:23;99380.63;;;2.10;100.00
14232;BME280;7200;52.194;9.900;2024-01-16T04:14:49;99376.47;;;2.02;100.00
14232;BME280;7200;52.194;9.900;2024-01-16T04:17:14;99383.47;;;1.98;100.00
14232;BME280;7200;52.194;9.900;2024-01-16T04:19:39;99374.22;;;1.82;100.00
14232;BME280;7200;52.194;9.900;2024-01-16T04:22:05;99376.66;;;1.92;100.00
14232;BME280;7200;52.194;9.900;2024-01-16T04:24:30;99386.53;;;1.72;100.00
14232;BME280;7200;52.194;9.900;2024-01-16T04:26:55;99382.91;;;1.81;100.00
14232;BME280;7200;52.194;9.900;2024-01-16T04:29:21;99386.44;;;1.77;100.00
14232;BME280;7200;52.194;9.900;2024-01-16T04:31:46;99387.53;;;1.63;100.00
14232;BME280;7200;52.194;9.900;2024-01-16T04:34:11;99387.28;;;1.79;100.00
14232;BME280;7200;52.194;9.900;2024-01-16T04:36:37;99379.69;;;1.68;100.00
14232;BME280;7200;52.194;9.900;2024-01-16T04:39:02;99393.38;;;1.78;100.00
14232;BME280;7200;52.194;9.900;2024-01-16T04:41:29;99382.91;;;1.81;100.00
14232;BME280;7200;52.194;9.900;2024-01-16T04:43:54;99387.41;;;1.71;100.00
14232;BME280;7200;52.194;9.900;2024-01-16T04:46:20;99386.44;;;1.77;100.00
14232;BME280;7200;52.194;9.900;2024-01-16T04:48:45;99389.19;;;1.69;100.00
14232;BME280;7200;52.194;9.900;2024-01-16T04:51:10;99382.16;;;1.75;100.00
14232;BME280;7200;52.194;9.900;2024-01-16T04:53:36;99392.28;;;1.89;100.00
14232;BME280;7200;52.194;9.900;2024-01-16T04:56:01;99393.94;;;1.95;100.00
14232;BME280;7200;52.194;9.900;2024-01-16T04:58:27;99397.38;;;1.95;100.00
14232;BME280;7200;52.194;9.900;2024-01-16T05:00:52;99390.78;;;1.78;100.00
14232;BME280;7200;52.194;9.900;2024-01-16T05:03:18;99390.75;;;1.79;100.00
14232;BME280;7200;52.194;9.900;2024-01-16T05:05:43;99388.16;;;1.79;100.00
14232;BME280;7200;52.194;9.900;2024-01-16T05:08:09;99400.28;;;1.77;100.00
14232;BME280;7200;52.194;9.900;2024-01-16T05:10:34;99391.66;;;1.77;100.00
14232;BME280;7200;52.194;9.900;2024-01-16T05:12:59;99392.34;;;1.86;100.00
14232;BME280;7200;52.194;9.900;2024-01-16T05:15:25;99393.06;;;1.94;100.00
14232;BME280;7200;52.194;9.900;2024-01-16T05:17:50;99400.22;;;1.83;100.00
14232;BME280;7200;52.194;9.900;2024-01-16T05:20:16;99398.25;;;1.96;100.00
14232;BME280;7200;52.194;9.900;2024-01-16T05:22:41;99395.72;;;1.91;100.00
14232;BME280;7200;52.194;9.900;2024-01-16T05:25:07;99399.97;;;1.95;100.00
14232;BME280;7200;52.194;9.900;2024-01-16T05:27:33;99399.53;;;1.72;100.00
14232;BME280;7200;52.194;9.900;2024-01-16T05:29:58;99405.44;;;1.82;100.00
14232;BME280;7200;52.194;9.900;2024-01-16T05:32:24;99399.72;;;1.60;100.00
14232;BME280;7200;52.194;9.900;2024-01-16T05:34:50;99398.69;;;1.71;100.00
14232;BME280;7200;52.194;9.900;2024-01-16T05:37:15;99401.34;;;1.68;100.00
14232;BME280;7200;52.194;9.900;2024-01-16T05:39:40;99407.25;;;1.77;100.00
14232;BME280;7200;52.194;9.900;2024-01-16T05:42:06;99404.63;;;1.78;100.00
14232;BME280;7200;52.194;9.900;2024-01-16T05:44:31;99409.97;;;1.69;100.00
14232;BME280;7200;52.194;9.900;2024-01-16T05:46:56;99421.06;;;1.80;100.00
14232;BME280;7200;52.194;9.900;2024-01-16T05:49:22;99409.19;;;1.64;100.00
14232;BME280;7200;52.194;9.900;2024-01-16T05:51:47;99415.19;;;1.69;100.00
14232;BME280;7200;52.194;9.900;2024-01-16T05:54:12;99418.50;;;1.77;100.00
14232;BME280;7200;52.194;9.900;2024-01-16T05:56:38;99421.81;;;1.87;100.00
14232;BME280;7200;52.194;9.900;2024-01-16T05:59:03;99420.53;;;1.60;100.00
14232;BME280;7200;52.194;9.900;2024-01-16T06:01:28;99417.81;;;1.67;100.00
14232;BME280;7200;52.194;9.900;2024-01-16T06:03:54;99410.00;;;1.67;100.00
14232;BME280;7200;52.194;9.900;2024-01-16T06:06:19;99412.81;;;1.55;100.00
14232;BME280;7200;52.194;9.900;2024-01-16T06:08:44;99413.66;;;1.55;100.00
14232;BME280;7200;52.194;9.900;2024-01-16T06:11:10;99410.41;;;1.41;100.00
14232;BME280;7200;52.194;9.900;2024-01-16T06:13:36;99419.72;;;1.56;100.00
14232;BME280;7200;52.194;9.900;2024-01-16T06:16:01;99412.16;;;1.42;100.00
14232;BME280;7200;52.194;9.900;2024-01-16T06:18:27;99421.50;;;1.54;100.00
14232;BME280;7200;52.194;9.900;2024-01-16T06:20:52;99413.63;;;1.60;100.00
14232;BME280;7200;52.194;9.900;2024-01-16T06:23:18;99409.41;;;1.51;100.00
14232;BME280;7200;52.194;9.900;2024-01-16T06:25:43;99419.56;;;1.67;100.00
14232;BME280;7200;52.194;9.900;2024-01-16T06:28:08;99415.41;;;1.57;100.00
14232;BME280;7200;52.194;9.900;2024-01-16T06:30:33;99408.63;;;1.46;100.00
14232;BME280;7200;52.194;9.900;2024-01-16T06:32:59;99408.56;;;1.51;100.00
14232;BME280;7200;52.194;9.900;2024-01-16T06:35:24;99407.50;;;1.63;100.00
14232;BME280;7200;52.194;9.900;2024-01-16T06:37:50;99404.25;;;1.48;100.00
14232;BME280;7200;52.194;9.900;2024-01-16T06:40:16;99418.81;;;1.59;100.00
14232;BME280;7200;52.194;9.900;2024-01-16T06:42:41;99418.06;;;1.50;100.00
14232;BME280;7200;52.194;9.900;2024-01-16T06:45:06;99412.84;;;1.52;100.00
14232;BME280;7200;52.194;9.900;2024-01-16T06:47:32;99423.06;;;1.64;100.00
14232;BME280;7200;52.194;9.900;2024-01-16T06:49:58;99418.03;;;1.55;100.00
14232;BME280;7200;52.194;9.900;2024-01-16T06:52:23;99422.41;;;1.50;100.00
14232;BME280;7200;52.194;9.900;2024-01-16T06:54:49;99419.56;;;1.65;100.00
14232;BME280;7200;52.194;9.900;2024-01-16T06:57:15;99421.31;;;1.65;100.00
14232;BME280;7200;52.194;9.900;2024-01-16T06:59:40;99426.59;;;1.60;100.00
14232;BME280;7200;52.194;9.900;2024-01-16T07:02:06;99435.72;;;1.84;100.00
14232;BME280;7200;52.194;9.900;2024-01-16T07:04:31;99428.13;;;1.72;100.00
14232;BME280;7200;52.194;9.900;2024-01-16T07:06:57;99434.91;;;1.81;100.00
14232;BME280;7200;52.194;9.900;2024-01-16T07:09:24;99441.00;;;1.80;100.00
14232;BME280;7200;52.194;9.900;2024-01-16T07:11:49;99434.09;;;1.77;100.00
14232;BME280;7200;52.194;9.900;2024-01-16T07:14:15;99439.44;;;1.69;100.00
14232;BME280;7200;52.194;9.900;2024-01-16T07:16:40;99447.28;;;1.68;100.00
14232;BME280;7200;52.194;9.900;2024-01-16T07:19:05;99444.47;;;1.79;100.00
14232;BME280;7200;52.194;9.900;2024-01-16T07:21:31;99447.16;;;1.75;100.00
14232;BME280;7200;52.194;9.900;2024-01-16T07:23:56;99444.41;;;1.85;100.00
14232;BME280;7200;52.194;9.900;2024-01-16T07:26:22;99447.50;;;1.52;100.00
14232;BME280;7200;52.194;9.900;2024-01-16T07:28:48;99446.50;;;1.63;100.00
14232;BME280;7200;52.194;9.900;2024-01-16T07:31:14;99449.09;;;1.63;100.00
14232;BME280;7200;52.194;9.900;2024-01-16T07:33:39;99449.91;;;1.65;100.00
14232;BME280;7200;52.194;9.900;2024-01-16T07:36:05;99442.91;;;1.71;100.00
14232;BME280;7200;52.194;9.900;2024-01-16T07:38:31;99455.13;;;1.65;100.00
14232;BME280;7200;52.194;9.900;2024-01-16T07:40:56;99442.91;;;1.70;100.00
14232;BME280;7200;52.194;9.900;2024-01-16T07:43:21;99449.63;;;1.83;100.00
14232;BME280;7200;52.194;9.900;2024-01-16T07:45:47;99448.84;;;1.77;100.00
14232;BME280;7200;52.194;9.900;2024-01-16T07:48:13;99446.22;;;1.78;100.00
14232;BME280;7200;52.194;9.900;2024-01-16T07:50:38;99446.91;;;1.91;100.00
14232;BME280;7200;52.194;9.900;2024-01-16T07:53:03;99448.84;;;1.78;100.00
14232;BME280;7200;52.194;9.900;2024-01-16T07:55:28;99454.97;;;1.75;100.00
14232;BME280;7200;52.194;9.900;2024-01-16T07:57:54;99455.78;;;1.78;100.00
14232;BME280;7200;52.194;9.900;2024-01-16T08:00:20;99461.69;;;1.87;100.00
14232;BME280;7200;52.194;9.900;2024-01-16T08:02:45;99467.69;;;1.91;100.00
14232;BME280;7200;52.194;9.900;2024-01-16T08:05:11;99462.75;;;1.75;100.00
14232;BME280;7200;52.194;9.900;2024-01-16T08:07:36;99468.81;;;1.76;100.00
14232;BME280;7200;52.194;9.900;2024-01-16T08:10:02;99467.84;;;1.82;100.00
14232;BME280;7200;52.194;9.900;2024-01-16T08:12:27;99477.88;;;2.03;100.00
14232;BME280;7200;52.194;9.900;2024-01-16T08:14:53;99471.28;;;1.84;100.00
14232;BME280;7200;52.194;9.900;2024-01-16T08:17:18;99463.31;;;1.94;100.00
14232;BME280;7200;52.194;9.900;2024-01-16T08:19:43;99467.75;;;1.86;100.00
14232;BME280;7200;52.194;9.900;2024-01-16T08:22:09;99467.75;;;1.88;100.00
14232;BME280;7200;52.194;9.900;2024-01-16T08:24:34;99468.69;;;1.82;100.00
14232;BME280;7200;52.194;9.900;2024-01-16T08:26:59;99466.81;;;1.92;100.00
14232;BME280;7200;52.194;9.900;2024-01-16T08:29:25;99466.75;;;1.97;100.00
14232;BME280;7200;52.194;9.900;2024-01-16T08:31:50;99461.41;;;2.03;100.00
14232;BME280;7200;52.194;9.900;2024-01-16T08:34:19;99469.31;;;1.98;100.00
14232;BME280;7200;52.194;9.900;2024-01-16T08:36:44;99470.81;;;2.11;100.00
14232;BME280;7200;52.194;9.900;2024-01-16T08:39:10;99470.59;;;2.24;100.00
14232;BME280;7200;52.194;9.900;2024-01-16T08:41:36;99462.22;;;2.08;100.00
14232;BME280;7200;52.194;9.900;2024-01-16T08:44:01;99461.38;;;2.06;100.00
14232;BME280;7200;52.194;9.900;2024-01-16T08:46:26;99465.94;;;1.93;100.00
14232;BME280;7200;52.194;9.900;2024-01-16T08:48:51;99465.06;;;1.92;100.00
14232;BME280;7200;52.194;9.900;2024-01-16T08:51:17;99463.97;;;2.07;100.00
14232;BME280;7200;52.194;9.900;2024-01-16T08:53:42;99466.31;;;2.21;100.00
14232;BME280;7200;52.194;9.900;2024-01-16T08:56:07;99462.34;;;2.00;100.00
14232;BME280;7200;52.194;9.900;2024-01-16T08:58:33;99463.88;;;2.12;100.00
14232;BME280;7200;52.194;9.900;2024-01-16T09:01:04;99466.34;;;2.18;100.00
14232;BME280;7200;52.194;9.900;2024-01-16T09:03:31;99465.28;;;2.30;100.00
14232;BME280;7200;52.194;9.900;2024-01-16T09:05:57;99464.94;;;2.00;100.00
14232;BME280;7200;52.194;9.900;2024-01-16T09:08:22;99462.28;;;2.03;100.00
14232;BME280;7200;52.194;9.900;2024-01-16T09:10:47;99460.72;;;1.94;100.00
14232;BME280;7200;52.194;9.900;2024-01-16T09:13:13;99459.00;;;1.92;100.00
14232;BME280;7200;52.194;9.900;2024-01-16T09:15:38;99470.03;;;2.06;100.00
14232;BME280;7200;52.194;9.900;2024-01-16T09:18:04;99465.09;;;1.91;100.00
14232;BME280;7200;52.194;9.900;2024-01-16T09:20:31;99466.63;;;2.03;100.00
14232;BME280;7200;52.194;9.900;2024-01-16T09:22:56;99470.72;;;2.18;100.00
14232;BME280;7200;52.194;9.900;2024-01-16T09:25:21;99470.88;;;2.08;100.00
14232;BME280;7200;52.194;9.900;2024-01-16T09:27:49;99472.38;;;2.22;100.00
14232;BME280;7200;52.194;9.900;2024-01-16T09:30:15;99465.66;;;2.08;100.00
14232;BME280;7200;52.194;9.900;2024-01-16T09:32:41;99463.59;;;2.26;100.00
14232;BME280;7200;52.194;9.900;2024-01-16T09:35:08;99477.66;;;2.17;100.00
14232;BME280;7200;52.194;9.900;2024-01-16T09:37:34;99472.38;;;2.20;100.00
14232;BME280;7200;52.194;9.900;2024-01-16T09:40:00;99469.13;;;2.09;100.00
14232;BME280;7200;52.194;9.900;2024-01-16T09:42:25;99476.78;;;2.17;100.00
14232;BME280;7200;52.194;9.900;2024-01-16T09:44:52;99467.31;;;2.12;100.00
14232;BME280;7200;52.194;9.900;2024-01-16T09:47:17;99473.44;;;2.10;100.00
14232;BME280;7200;52.194;9.900;2024-01-16T09:49:46;99476.72;;;2.21;100.00
14232;BME280;7200;52.194;9.900;2024-01-16T09:52:11;99474.84;;;2.28;100.00
14232;BME280;7200;52.194;9.900;2024-01-16T09:54:36;99487.47;;;2.51;100.00
14232;BME280;7200;52.194;9.900;2024-01-16T09:57:03;99483.31;;;2.39;100.00
14232;BME280;7200;52.194;9.900;2024-01-16T09:59:31;99473.41;;;2.60;100.00
14232;BME280;7200;52.194;9.900;2024-01-16T10:01:57;99473.53;;;2.53;100.00
14232;BME280;7200;52.194;9.900;2024-01-16T10:04:23;99482.31;;;2.48;100.00
14232;BME280;7200;52.194;9.900;2024-01-16T10:06:49;99478.69;;;2.57;100.00
14232;BME280;7200;52.194;9.900;2024-01-16T10:09:16;99474.50;;;2.46;100.00
14232;BME280;7200;52.194;9.900;2024-01-16T10:11:42;99478.81;;;2.49;100.00
14232;BME280;7200;52.194;9.900;2024-01-16T10:14:08;99484.94;;;2.45;100.00
14232;BME280;7200;52.194;9.900;2024-01-16T10:16:59;99480.97;;;2.73;100.00
14232;BME280;7200;52.194;9.900;2024-01-16T10:19:27;99480.06;;;2.75;100.00
14232;BME280;7200;52.194;9.900;2024-01-16T10:21:52;99485.06;;;2.85;100.00
14232;BME280;7200;52.194;9.900;2024-01-16T10:24:18;99464.41;;;2.75;100.00
14232;BME280;7200;52.194;9.900;2024-01-16T10:26:43;99475.91;;;2.66;100.00
14232;BME280;7200;52.194;9.900;2024-01-16T10:29:08;99476.28;;;2.89;100.00
14232;BME280;7200;52.194;9.900;2024-01-16T10:31:34;99482.31;;;2.91;100.00
14232;BME280;7200;52.194;9.900;2024-01-16T10:33:59;99481.59;;;2.85;100.00
14232;BME280;7200;52.194;9.900;2024-01-16T10:36:25;99483.97;;;2.96;100.00
14232;BME280;7200;52.194;9.900;2024-01-16T10:38:51;99488.63;;;2.80;100.00
14232;BME280;7200;52.194;9.900;2024-01-16T10:41:23;99486.50;;;3.00;100.00
14232;BME280;7200;52.194;9.900;2024-01-16T10:44:05;99477.47;;;3.17;100.00
14232;BME280;7200;52.194;9.900;2024-01-16T10:46:32;99485.47;;;3.07;100.00
14232;BME280;7200;52.194;9.900;2024-01-16T10:49:02;99483.94;;;2.97;100.00
14232;BME280;7200;52.194;9.900;2024-01-16T10:51:28;99486.09;;;3.19;100.00
14232;BME280;7200;52.194;9.900;2024-01-16T10:54:02;99491.28;;;3.20;100.00
14232;BME280;7200;52.194;9.900;2024-01-16T10:56:30;99484.22;;;3.24;100.00
14232;BME280;7200;52.194;9.900;2024-01-16T10:59:24;99482.41;;;3.27;100.00
14232;BME280;7200;52.194;9.900;2024-01-16T11:01:53;99480.25;;;3.09;100.00
14232;BME280;7200;52.194;9.900;2024-01-16T11:04:20;99481.53;;;3.28;100.00
14232;BME280;7200;52.194;9.900;2024-01-16T11:06:47;99479.75;;;3.30;100.00
14232;BME280;7200;52.194;9.900;2024-01-16T11:09:16;99484.16;;;3.28;100.00
14232;BME280;7200;52.194;9.900;2024-01-16T11:11:43;99472.97;;;3.23;100.00
14232;BME280;7200;52.194;9.900;2024-01-16T11:14:11;99477.34;;;3.21;100.00
14232;BME280;7200;52.194;9.900;2024-01-16T11:16:37;99469.03;;;3.05;100.00
14232;BME280;7200;52.194;9.900;2024-01-16T11:19:04;99477.56;;;3.10;100.00
14232;BME280;7200;52.194;9.900;2024-01-16T11:21:31;99466.13;;;3.18;100.00
14232;BME280;7200;52.194;9.900;2024-01-16T11:23:57;99470.56;;;3.12;100.00
14232;BME280;7200;52.194;9.900;2024-01-16T11:26:32;99470.66;;;3.09;100.00
14232;BME280;7200;52.194;9.900;2024-01-16T11:28:59;99470.63;;;3.11;100.00
14232;BME280;7200;52.194;9.900;2024-01-16T11:31:32;99486.84;;;2.83;100.00
14232;BME280;7200;52.194;9.900;2024-01-16T11:33:59;99475.63;;;2.78;100.00
14232;BME280;7200;52.194;9.900;2024-01-16T11:36:48;99462.94;;;3.05;100.00
14232;BME280;7200;52.194;9.900;2024-01-16T11:39:20;99463.72;;;2.66;100.00
14232;BME280;7200;52.194;9.900;2024-01-16T11:41:57;99474.34;;;2.99;100.00
14232;BME280;7200;52.194;9.900;2024-01-16T11:44:46;99461.47;;;2.91;100.00
14232;BME280;7200;52.194;9.900;2024-01-16T11:47:23;99471.81;;;2.96;100.00
14232;BME280;7200;52.194;9.900;2024-01-16T11:52:44;99476.38;;;3.25;100.00
14232;BME280;7200;52.194;9.900;2024-01-16T11:55:35;99459.59;;;3.00;100.00
14232;BME280;7200;52.194;9.900;2024-01-16T12:00:36;99473.56;;;3.36;100.00
14232;BME280;7200;52.194;9.900;2024-01-16T12:03:05;99471.72;;;3.40;100.00
14232;BME280;7200;52.194;9.900;2024-01-16T12:05:31;99454.94;;;3.12;100.00
14232;BME280;7200;52.194;9.900;2024-01-16T12:07:57;99464.53;;;3.10;100.00
14232;BME280;7200;52.194;9.900;2024-01-16T12:10:23;99461.91;;;3.12;100.00
14232;BME280;7200;52.194;9.900;2024-01-16T12:12:50;99456.00;;;3.04;100.00
14232;BME280;7200;52.194;9.900;2024-01-16T12:15:19;99454.22;;;3.06;100.00
14232;BME280;7200;52.194;9.900;2024-01-16T12:17:59;99464.16;;;3.29;100.00
14232;BME280;7200;52.194;9.900;2024-01-16T12:20:32;99470.53;;;3.16;100.00
14232;BME280;7200;52.194;9.900;2024-01-16T12:23:03;99461.00;;;3.15;100.00
14232;BME280;7200;52.194;9.900;2024-01-16T12:25:38;99472.69;;;3.37;100.00
14232;BME280;7200;52.194;9.900;2024-01-16T12:28:05;99463.72;;;3.08;100.00
14232;BME280;7200;52.194;9.900;2024-01-16T12:30:32;99469.66;;;3.17;100.00
14232;BME280;7200;52.194;9.900;2024-01-16T12:33:13;99474.16;;;3.07;100.00
14232;BME280;7200;52.194;9.900;2024-01-16T12:35:40;99475.59;;;3.22;100.00
14232;BME280;7200;52.194;9.900;2024-01-16T12:38:07;99472.50;;;3.04;100.00
14232;BME280;7200;52.194;9.900;2024-01-16T12:40:36;99475.28;;;2.97;100.00
14232;BME280;7200;52.194;9.900;2024-01-16T12:43:03;99478.75;;;2.96;100.00
14232;BME280;7200;52.194;9.900;2024-01-16T12:45:28;99464.72;;;3.03;100.00
14232;BME280;7200;52.194;9.900;2024-01-16T12:47:54;99462.88;;;2.66;100.00
14232;BME280;7200;52.194;9.900;2024-01-16T12:50:23;99474.09;;;3.11;100.00
14232;BME280;7200;52.194;9.900;2024-01-16T12:52:50;99466.28;;;3.11;100.00
14232;BME280;7200;52.194;9.900;2024-01-16T12:55:16;99465.69;;;2.97;100.00
14232;BME280;7200;52.194;9.900;2024-01-16T12:57:43;99462.81;;;3.11;100.00
14232;BME280;7200;52.194;9.900;2024-01-16T13:00:24;99472.31;;;3.14;100.00
14232;BME280;7200;52.194;9.900;2024-01-16T13:02:53;99453.63;;;2.93;100.00
14232;BME280;7200;52.194;9.900;2024-01-16T13:05:21;99465.22;;;3.20;100.00
14232;BME280;7200;52.194;9.900;2024-01-16T13:07:59;99462.56;;;3.22;100.00
14232;BME280;7200;52.194;9.900;2024-01-16T13:10:25;99452.41;;;3.11;100.00
14232;BME280;7200;52.194;9.900;2024-01-16T13:12:50;99450.94;;;2.98;100.00